createdAt,value
2022-09-20T00:01:54.137Z,95449.16
2022-09-20T00:04:20.476Z,95452.97
2022-09-20T00:06:46.831Z,95448.69
2022-09-20T00:09:13.183Z,95445.03
2022-09-20T00:11:39.498Z,95450.38
2022-09-20T00:14:05.831Z,95449.88
2022-09-20T00:16:32.343Z,95447.41
2022-09-20T00:18:58.730Z,95447.28
2022-09-20T00:21:25.042Z,95436.75
2022-09-20T00:23:51.373Z,95445.50
2022-09-20T00:26:17.733Z,95444.66
2022-09-20T00:28:44.069Z,95447.16
2022-09-20T00:31:10.524Z,95438.69
2022-09-20T00:33:36.857Z,95447.41
2022-09-20T00:36:03.198Z,95451.53
2022-09-20T00:38:29.523Z,95448.34
2022-09-20T00:40:55.830Z,95442.44
2022-09-20T00:43:22.179Z,95449.19
2022-09-20T00:45:48.551Z,95443.00
2022-09-20T00:48:14.925Z,95448.41
2022-09-20T00:50:41.257Z,95453.19
2022-09-20T00:53:07.604Z,95454.16
2022-09-20T00:55:34.004Z,95447.59
2022-09-20T00:58:00.334Z,95455.41
2022-09-20T01:00:26.672Z,95443.97
2022-09-20T01:02:52.982Z,95447.28
2022-09-20T01:05:19.333Z,95450.66
2022-09-20T01:07:45.689Z,95454.81
2022-09-20T01:10:12.012Z,95456.06
2022-09-20T01:12:38.392Z,95450.00
2022-09-20T01:15:04.754Z,95443.34
2022-09-20T01:17:31.122Z,95447.53
2022-09-20T01:19:57.489Z,95447.50
2022-09-20T01:22:23.814Z,95450.78
2022-09-20T01:24:50.178Z,95445.25
2022-09-20T01:27:16.506Z,95451.53
2022-09-20T01:29:42.880Z,95447.25
2022-09-20T01:32:09.272Z,95445.47
2022-09-20T01:34:35.631Z,95450.56
2022-09-20T01:37:01.985Z,95448.50
2022-09-20T01:39:28.309Z,95448.09
2022-09-20T01:41:54.666Z,95449.84
2022-09-20T01:44:20.996Z,95446.72
2022-09-20T01:46:47.325Z,95451.09
2022-09-20T01:49:13.680Z,95453.72
2022-09-20T01:51:40.019Z,95452.13
2022-09-20T01:54:06.365Z,95454.88
2022-09-20T01:56:32.716Z,95456.66
2022-09-20T01:59:19.848Z,95457.00
2022-09-20T02:01:45.347Z,95460.41
2022-09-20T02:04:11.681Z,95470.03
2022-09-20T02:06:38.001Z,95461.69
2022-09-20T02:09:04.339Z,95462.63
2022-09-20T02:11:30.650Z,95461.34
2022-09-20T02:13:56.993Z,95456.47
2022-09-20T02:16:23.334Z,95456.59
2022-09-20T02:18:49.695Z,95453.44
2022-09-20T02:21:16.009Z,95449.38
2022-09-20T02:23:42.315Z,95460.41
2022-09-20T02:26:08.635Z,95456.16
2022-09-20T02:28:34.995Z,95460.09
2022-09-20T02:31:01.360Z,95458.25
2022-09-20T02:33:27.687Z,95459.19
2022-09-20T02:35:54.011Z,95463.84
2022-09-20T02:38:20.350Z,95455.22
2022-09-20T02:40:46.680Z,95458.13
2022-09-20T02:43:13.000Z,95456.25
2022-09-20T02:45:39.361Z,95463.84
2022-09-20T02:48:05.727Z,95457.53
2022-09-20T02:50:32.052Z,95464.41
2022-09-20T02:52:58.388Z,95466.59
2022-09-20T02:55:24.695Z,95467.75
2022-09-20T02:57:51.025Z,95467.00
2022-09-20T03:00:17.333Z,95457.53
2022-09-20T03:02:43.743Z,95466.59
2022-09-20T03:05:10.146Z,95465.13
2022-09-20T03:07:36.457Z,95471.19
2022-09-20T03:10:02.815Z,95469.53
2022-09-20T03:12:29.125Z,95472.00
2022-09-20T03:14:55.454Z,95467.53
2022-09-20T03:17:21.775Z,95469.72
2022-09-20T03:19:48.183Z,95473.50
2022-09-20T03:22:14.538Z,95474.22
2022-09-20T03:24:40.920Z,95476.91
2022-09-20T03:27:07.244Z,95485.56
2022-09-20T03:29:33.578Z,95478.91
2022-09-20T03:31:59.940Z,95475.59
2022-09-20T03:34:26.303Z,95475.38
2022-09-20T03:36:52.623Z,95477.66
2022-09-20T03:39:18.945Z,95477.13
2022-09-20T03:41:45.278Z,95476.50
2022-09-20T03:44:11.599Z,95472.44
2022-09-20T03:46:37.929Z,95469.22
2022-09-20T03:49:04.285Z,95469.72
2022-09-20T03:51:34.155Z,95484.53
2022-09-20T03:54:00.726Z,95471.72
2022-09-20T03:56:27.041Z,95471.50
2022-09-20T03:58:53.384Z,95473.69
2022-09-20T04:01:19.798Z,95472.66
2022-09-20T04:03:46.173Z,95479.13
2022-09-20T04:06:12.496Z,95477.66
2022-09-20T04:08:40.293Z,95468.50
2022-09-20T04:11:06.749Z,95468.69
2022-09-20T04:13:33.055Z,95461.50
2022-09-20T04:15:59.382Z,95466.00
2022-09-20T04:18:25.711Z,95461.19
2022-09-20T04:20:52.124Z,95465.34
2022-09-20T04:23:18.455Z,95470.38
2022-09-20T04:25:44.838Z,95477.78
2022-09-20T04:28:11.159Z,95471.41
2022-09-20T04:30:37.490Z,95469.19
2022-09-20T04:33:03.808Z,95485.56
2022-09-20T04:35:30.141Z,95475.38
2022-09-20T04:37:56.459Z,95469.19
2022-09-20T04:40:22.902Z,95471.50
2022-09-20T04:42:49.489Z,95475.16
2022-09-20T04:45:15.815Z,95478.72
2022-09-20T04:47:42.147Z,95480.16
2022-09-20T04:50:08.508Z,95484.41
2022-09-20T04:52:34.839Z,95483.50
2022-09-20T04:55:01.159Z,95488.69
2022-09-20T04:57:27.470Z,95482.88
2022-09-20T04:59:53.827Z,95480.78
2022-09-20T05:02:20.248Z,95490.78
2022-09-20T05:04:46.639Z,95490.59
2022-09-20T05:07:12.990Z,95490.59
2022-09-20T05:09:39.322Z,95487.25
2022-09-20T05:12:05.634Z,95489.75
2022-09-20T05:17:03.245Z,95491.72
2022-09-20T05:19:29.627Z,95498.31
2022-09-20T05:21:55.945Z,95502.38
2022-09-20T05:24:22.344Z,95498.81
2022-09-20T05:26:48.702Z,95504.22
2022-09-20T05:29:15.186Z,95501.41
2022-09-20T05:31:41.566Z,95505.38
2022-09-20T05:34:07.918Z,95499.97
2022-09-20T05:36:34.808Z,95501.50
2022-09-20T05:39:03.399Z,95506.75
2022-09-20T05:41:30.272Z,95500.59
2022-09-20T05:43:56.703Z,95507.38
2022-09-20T05:46:23.023Z,95511.84
2022-09-20T05:48:49.356Z,95507.78
2022-09-20T05:51:15.677Z,95515.38
2022-09-20T05:53:41.979Z,95512.25
2022-09-20T05:56:08.320Z,95513.50
2022-09-20T05:58:34.643Z,95521.66
2022-09-20T06:01:00.999Z,95524.03
2022-09-20T06:03:27.388Z,95522.59
2022-09-20T06:05:53.719Z,95520.47
2022-09-20T06:08:20.026Z,95523.63
2022-09-20T06:10:46.370Z,95536.25
2022-09-20T06:13:12.703Z,95534.78
2022-09-20T06:15:39.024Z,95540.63
2022-09-20T06:18:05.345Z,95535.41
2022-09-20T06:20:31.668Z,95540.63
2022-09-20T06:22:57.999Z,95541.13
2022-09-20T06:25:24.341Z,95541.97
2022-09-20T06:27:50.667Z,95547.72
2022-09-20T06:30:16.981Z,95547.19
2022-09-20T06:32:43.312Z,95551.16
2022-09-20T06:35:09.648Z,95556.88
2022-09-20T06:37:35.958Z,95548.03
2022-09-20T06:40:02.308Z,95554.69
2022-09-20T06:42:28.658Z,95549.06
2022-09-20T06:44:54.991Z,95553.97
2022-09-20T06:47:21.315Z,95558.16
2022-09-20T06:49:47.655Z,95556.97
2022-09-20T06:52:14.018Z,95560.63
2022-09-20T06:54:40.355Z,95555.53
2022-09-20T06:57:06.808Z,95551.22
2022-09-20T06:59:33.168Z,95552.81
2022-09-20T07:01:59.557Z,95554.69
2022-09-20T07:04:25.910Z,95550.41
2022-09-20T07:06:52.228Z,95554.38
2022-09-20T07:09:18.592Z,95552.69
2022-09-20T07:11:44.937Z,95557.00
2022-09-20T07:14:11.248Z,95552.28
2022-09-20T07:16:37.599Z,95551.47
2022-09-20T07:19:03.966Z,95547.78
2022-09-20T07:21:30.314Z,95556.69
2022-09-20T07:23:56.637Z,95551.88
2022-09-20T07:26:22.958Z,95549.28
2022-09-20T07:28:49.280Z,95548.63
2022-09-20T07:31:15.676Z,95548.53
2022-09-20T07:33:42.011Z,95548.34
2022-09-20T07:36:08.312Z,95554.47
2022-09-20T07:38:34.625Z,95557.91
2022-09-20T07:41:00.945Z,95557.91
2022-09-20T07:43:27.286Z,95562.41
2022-09-20T07:45:53.662Z,95567.31
2022-09-20T07:48:20.010Z,95568.53
2022-09-20T07:50:46.367Z,95568.53
2022-09-20T07:53:12.699Z,95567.31
2022-09-20T07:55:39.011Z,95565.22
2022-09-20T07:58:05.349Z,95566.78
2022-09-20T08:00:31.898Z,95572.00
2022-09-20T08:02:58.224Z,95572.53
2022-09-20T08:05:24.554Z,95568.75
2022-09-20T08:07:50.869Z,95577.41
2022-09-20T08:10:17.201Z,95571.25
2022-09-20T08:15:29.830Z,95573.16
2022-09-20T08:17:56.153Z,95578.78
2022-09-20T08:20:22.486Z,95583.28
2022-09-20T08:23:06.431Z,95582.84
2022-09-20T08:25:35.140Z,95578.91
2022-09-20T08:28:01.494Z,95575.34
2022-09-20T08:30:28.008Z,95572.66
2022-09-20T08:32:54.379Z,95570.16
2022-09-20T08:35:20.703Z,95576.38
2022-09-20T08:37:47.006Z,95578.25
2022-09-20T08:40:13.383Z,95569.28
2022-09-20T08:42:44.426Z,95581.50
2022-09-20T08:45:11.384Z,95584.56
2022-09-20T08:47:37.754Z,95575.16
2022-09-20T08:50:11.530Z,95578.25
2022-09-20T08:52:38.109Z,95585.97
2022-09-20T08:55:07.484Z,95582.63
2022-09-20T08:57:34.240Z,95576.81
2022-09-20T09:00:00.561Z,95586.72
2022-09-20T09:02:26.956Z,95586.91
2022-09-20T09:04:53.278Z,95583.50
2022-09-20T09:07:19.608Z,95584.44
2022-09-20T09:09:45.925Z,95580.84
2022-09-20T09:12:12.259Z,95583.97
2022-09-20T09:14:38.587Z,95574.97
2022-09-20T09:17:04.968Z,95578.53
2022-09-20T09:19:34.477Z,95582.00
2022-09-20T09:22:00.892Z,95580.22
2022-09-20T09:24:27.230Z,95572.31
2022-09-20T09:26:53.563Z,95576.13
2022-09-20T09:29:19.909Z,95574.66
2022-09-20T09:31:46.382Z,95571.72
2022-09-20T09:34:12.774Z,95578.69
2022-09-20T09:36:39.106Z,95573.44
2022-09-20T09:39:05.445Z,95565.84
2022-09-20T09:41:31.798Z,95563.22
2022-09-20T09:43:58.123Z,95564.94
2022-09-20T09:46:24.537Z,95566.00
2022-09-20T09:48:50.932Z,95554.97
2022-09-20T09:51:17.275Z,95558.91
2022-09-20T09:53:43.615Z,95565.00
2022-09-20T09:56:14.030Z,95555.41
2022-09-20T09:58:40.707Z,95553.19
2022-09-20T10:01:07.097Z,95559.78
2022-09-20T10:03:33.425Z,95556.81
2022-09-20T10:05:59.779Z,95554.34
2022-09-20T10:08:26.113Z,95546.19
2022-09-20T10:10:52.477Z,95556.03
2022-09-20T10:13:18.790Z,95552.91
2022-09-20T10:15:45.146Z,95546.13
2022-09-20T10:18:11.465Z,95542.63
2022-09-20T10:20:37.786Z,95545.38
2022-09-20T10:23:39.489Z,95540.69
2022-09-20T10:25:50.442Z,95542.97
2022-09-20T10:28:16.770Z,95537.22
2022-09-20T10:30:43.212Z,95542.16
2022-09-20T10:33:09.596Z,95546.94
2022-09-20T10:35:35.933Z,95545.69
2022-09-20T10:38:02.285Z,95542.34
2022-09-20T10:40:28.652Z,95534.38
2022-09-20T10:42:55.048Z,95532.88
2022-09-20T10:45:53.345Z,95521.66
2022-09-20T10:48:07.680Z,95520.69
2022-09-20T10:50:34.001Z,95520.19
2022-09-20T10:53:00.316Z,95526.25
2022-09-20T10:55:26.641Z,95518.72
2022-09-20T10:57:53.198Z,95529.66
2022-09-20T11:00:19.530Z,95533.69
2022-09-20T11:02:45.855Z,95534.88
2022-09-20T11:05:12.186Z,95535.00
2022-09-20T11:07:38.515Z,95524.47
2022-09-20T11:10:04.855Z,95526.13
2022-09-20T11:12:31.183Z,95524.13
2022-09-20T11:14:57.514Z,95532.75
2022-09-20T11:17:23.849Z,95524.84
2022-09-20T11:19:50.173Z,95527.91
2022-09-20T11:22:16.497Z,95528.38
2022-09-20T11:24:42.827Z,95527.31
2022-09-20T11:27:09.159Z,95530.06
2022-09-20T11:29:35.543Z,95525.19
2022-09-20T11:32:01.975Z,95528.84
2022-09-20T11:34:28.344Z,95525.72
2022-09-20T11:36:54.693Z,95520.69
2022-09-20T11:39:21.026Z,95529.59
2022-09-20T11:41:47.345Z,95521.78
2022-09-20T11:44:13.667Z,95530.41
2022-09-20T11:46:40.003Z,95530.06
2022-09-20T11:49:06.336Z,95533.38
2022-09-20T11:51:32.716Z,95524.75
2022-09-20T11:53:59.042Z,95529.81
2022-09-20T11:56:25.366Z,95532.22
2022-09-20T11:58:51.686Z,95532.66
2022-09-20T12:01:18.022Z,95525.78
2022-09-20T12:03:44.354Z,95527.81
2022-09-20T12:06:10.679Z,95523.50
2022-09-20T12:08:37.010Z,95525.66
2022-09-20T12:11:03.338Z,95529.22
2022-09-20T12:13:29.670Z,95524.00
2022-09-20T12:15:56.073Z,95520.03
2022-09-20T12:18:22.481Z,95524.38
2022-09-20T12:20:48.838Z,95522.28
2022-09-20T12:23:15.211Z,95522.09
2022-09-20T12:25:41.541Z,95517.56
2022-09-20T12:28:07.850Z,95508.16
2022-09-20T12:30:34.179Z,95509.41
2022-09-20T12:33:00.503Z,95518.16
2022-09-20T12:35:27.047Z,95519.03
2022-09-20T12:37:53.405Z,95516.97
2022-09-20T12:40:19.762Z,95519.63
2022-09-20T12:42:46.106Z,95512.47
2022-09-20T12:45:12.439Z,95508.97
2022-09-20T12:47:38.760Z,95506.84
2022-09-20T12:50:05.067Z,95507.03
2022-09-20T12:52:31.450Z,95505.19
2022-09-20T12:55:00.944Z,95498.34
2022-09-20T12:57:30.249Z,95500.19
2022-09-20T12:59:56.636Z,95503.59
2022-09-20T13:02:22.996Z,95501.25
2022-09-20T13:04:49.418Z,95499.00
2022-09-20T13:07:15.750Z,95500.34
2022-09-20T13:09:42.093Z,95490.94
2022-09-20T13:12:08.421Z,95501.66
2022-09-20T13:14:34.764Z,95496.13
2022-09-20T13:17:01.086Z,95498.16
2022-09-20T13:19:27.428Z,95499.88
2022-09-20T13:21:53.755Z,95502.03
2022-09-20T13:24:20.090Z,95497.78
2022-09-20T13:26:46.421Z,95496.13
2022-09-20T13:29:12.755Z,95494.81
2022-09-20T13:31:39.130Z,95495.19
2022-09-20T13:34:05.550Z,95492.91
2022-09-20T13:36:31.970Z,95495.88
2022-09-20T13:38:58.356Z,95492.69
2022-09-20T13:41:24.661Z,95493.69
2022-09-20T13:43:51.045Z,95491.75
2022-09-20T13:46:17.449Z,95487.47
2022-09-20T13:48:43.908Z,95484.88
2022-09-20T13:51:10.237Z,95487.25
2022-09-20T13:53:43.769Z,95491.50
2022-09-20T13:56:10.101Z,95491.53
2022-09-20T13:58:36.417Z,95487.91
2022-09-20T14:01:02.832Z,95486.38
2022-09-20T14:03:29.203Z,95483.94
2022-09-20T14:05:55.602Z,95486.78
2022-09-20T14:08:21.948Z,95487.88
2022-09-20T14:10:48.273Z,95496.00
2022-09-20T14:13:14.609Z,95494.53
2022-09-20T14:15:40.949Z,95490.19
2022-09-20T14:18:07.282Z,95492.13
2022-09-20T14:20:33.598Z,95483.59
2022-09-20T14:22:59.924Z,95484.81
2022-09-20T14:25:26.268Z,95486.88
2022-09-20T14:27:52.670Z,95483.78
2022-09-20T14:30:19.006Z,95486.69
2022-09-20T14:32:45.336Z,95480.75
2022-09-20T14:35:11.660Z,95473.56
2022-09-20T14:37:38.054Z,95478.63
2022-09-20T14:40:04.425Z,95478.25
2022-09-20T14:42:30.787Z,95475.56
2022-09-20T14:44:57.109Z,95476.44
2022-09-20T14:47:23.455Z,95473.66
2022-09-20T14:49:49.781Z,95475.84
2022-09-20T14:52:16.105Z,95477.09
2022-09-20T14:54:42.443Z,95470.50
2022-09-20T14:57:08.767Z,95466.13
2022-09-20T14:59:35.083Z,95468.59
2022-09-20T15:02:01.419Z,95475.13
2022-09-20T15:04:27.752Z,95476.38
2022-09-20T15:06:54.077Z,95466.13
2022-09-20T15:09:20.398Z,95471.66
2022-09-20T15:11:46.728Z,95470.56
2022-09-20T15:14:13.028Z,95470.75
2022-09-20T15:16:39.437Z,95464.06
2022-09-20T15:19:05.888Z,95474.00
2022-09-20T15:21:32.301Z,95470.28
2022-09-20T15:23:58.640Z,95466.13
2022-09-20T15:26:24.972Z,95470.84
2022-09-20T15:28:51.297Z,95472.41
2022-09-20T15:31:17.642Z,95461.16
2022-09-20T15:33:43.986Z,95473.09
2022-09-20T15:36:10.327Z,95464.13
2022-09-20T15:38:36.647Z,95467.16
2022-09-20T15:41:02.967Z,95468.38
2022-09-20T15:43:29.280Z,95469.78
2022-09-20T15:45:55.693Z,95461.91
2022-09-20T15:48:22.055Z,95469.22
2022-09-20T15:50:48.378Z,95473.78
2022-09-20T15:53:14.711Z,95475.56
2022-09-20T15:55:41.034Z,95473.56
2022-09-20T15:58:07.364Z,95475.06
2022-09-20T16:00:33.676Z,95472.50
2022-09-20T16:03:00.009Z,95468.91
2022-09-20T16:05:26.331Z,95474.34
2022-09-20T16:07:52.664Z,95472.78
2022-09-20T16:10:19.032Z,95470.25
2022-09-20T16:12:45.407Z,95480.44
2022-09-20T16:15:11.716Z,95485.16
2022-09-20T16:17:38.044Z,95479.28
2022-09-20T16:20:04.352Z,95483.13
2022-09-20T16:22:30.684Z,95482.78
2022-09-20T16:24:57.022Z,95486.78
2022-09-20T16:27:23.334Z,95489.28
2022-09-20T16:29:49.660Z,95485.50
2022-09-20T16:32:15.970Z,95498.69
2022-09-20T16:34:42.320Z,95491.44
2022-09-20T16:37:08.659Z,95490.09
2022-09-20T16:39:34.991Z,95491.16
2022-09-20T16:42:01.337Z,95487.59
2022-09-20T16:44:27.654Z,95491.41
2022-09-20T16:46:54.033Z,95493.66
2022-09-20T16:49:20.456Z,95503.94
2022-09-20T16:51:46.824Z,95498.13
2022-09-20T16:54:13.304Z,95497.69
2022-09-20T16:56:39.719Z,95496.97
2022-09-20T16:59:06.097Z,95502.81
2022-09-20T17:01:32.408Z,95497.91
2022-09-20T17:03:58.862Z,95499.75
2022-09-20T17:06:25.198Z,95505.78
2022-09-20T17:08:54.524Z,95501.59
2022-09-20T17:11:23.190Z,95495.56
2022-09-20T17:13:49.600Z,95502.47
2022-09-20T17:16:16.027Z,95509.56
2022-09-20T17:18:42.350Z,95513.41
2022-09-20T17:21:08.714Z,95507.19
2022-09-20T17:23:35.117Z,95513.94
2022-09-20T17:26:01.584Z,95513.06
2022-09-20T17:28:28.038Z,95513.72
2022-09-20T17:30:54.421Z,95514.13
2022-09-20T17:33:20.883Z,95527.84
2022-09-20T17:35:47.309Z,95525.66
2022-09-20T17:38:13.747Z,95532.28
2022-09-20T17:40:40.285Z,95526.59
2022-09-20T17:43:06.719Z,95526.97
2022-09-20T17:45:33.168Z,95528.44
2022-09-20T17:47:59.633Z,95528.13
2022-09-20T17:50:26.113Z,95535.47
2022-09-20T17:52:52.470Z,95540.22
2022-09-20T17:55:18.911Z,95543.66
2022-09-20T17:57:45.303Z,95552.81
2022-09-20T18:00:11.697Z,95543.22
2022-09-20T18:02:38.049Z,95541.84
2022-09-20T18:05:04.370Z,95547.84
2022-09-20T18:07:30.739Z,95547.06
2022-09-20T18:09:57.171Z,95556.41
2022-09-20T18:12:23.557Z,95550.97
2022-09-20T18:14:50.039Z,95552.63
2022-09-20T18:17:16.372Z,95550.91
2022-09-20T18:19:42.729Z,95550.84
2022-09-20T18:22:09.045Z,95557.88
2022-09-20T18:24:35.373Z,95546.84
2022-09-20T18:27:01.763Z,95557.94
2022-09-20T18:29:28.155Z,95549.56
2022-09-20T18:31:54.660Z,95560.84
2022-09-20T18:34:21.031Z,95568.22
2022-09-20T18:36:47.377Z,95559.91
2022-09-20T18:39:13.703Z,95567.31
2022-09-20T18:41:40.017Z,95566.56
2022-09-20T18:44:06.480Z,95557.38
2022-09-20T18:46:32.846Z,95560.84
2022-09-20T18:48:59.230Z,95561.66
2022-09-20T18:51:25.568Z,95572.09
2022-09-20T18:53:51.912Z,95563.13
2022-09-20T18:56:18.245Z,95558.31
2022-09-20T18:58:44.597Z,95560.22
2022-09-20T19:01:11.095Z,95558.94
2022-09-20T19:03:37.506Z,95564.19
2022-09-20T19:06:03.898Z,95556.56
2022-09-20T19:08:30.228Z,95560.94
2022-09-20T19:10:56.594Z,95561.16
2022-09-20T19:13:22.986Z,95557.41
2022-09-20T19:15:49.393Z,95561.16
2022-09-20T19:18:18.354Z,95562.59
2022-09-20T19:20:46.847Z,95554.78
2022-09-20T19:23:13.309Z,95562.91
2022-09-20T19:25:39.657Z,95567.00
2022-09-20T19:28:06.098Z,95567.91
2022-09-20T19:30:32.427Z,95562.59
2022-09-20T19:32:58.760Z,95567.63
2022-09-20T19:35:25.128Z,95571.50
2022-09-20T19:37:51.498Z,95556.47
2022-09-20T19:40:17.869Z,95573.47
2022-09-20T19:42:44.289Z,95575.03
2022-09-20T19:45:10.764Z,95565.97
2022-09-20T19:47:37.120Z,95576.50
2022-09-20T19:50:03.438Z,95576.50
2022-09-20T19:52:29.861Z,95576.78
2022-09-20T19:54:56.215Z,95579.59
2022-09-20T19:57:22.548Z,95573.13
2022-09-20T19:59:48.933Z,95576.69
2022-09-20T20:02:15.263Z,95576.47
2022-09-20T20:04:41.808Z,95579.91
2022-09-20T20:07:08.240Z,95576.78
2022-09-20T20:09:34.583Z,95573.66
2022-09-20T20:12:00.911Z,95585.13
2022-09-20T20:14:27.330Z,95575.69
2022-09-20T20:16:53.654Z,95587.06
2022-09-20T20:19:19.999Z,95585.50
2022-09-20T20:21:46.316Z,95571.00
2022-09-20T20:24:12.646Z,95578.41
2022-09-20T20:26:38.995Z,95589.28
2022-09-20T20:29:05.331Z,95592.09
2022-09-20T20:31:31.662Z,95579.28
2022-09-20T20:33:58.127Z,95589.91
2022-09-20T20:36:24.560Z,95595.13
2022-09-20T20:38:50.890Z,95592.22
2022-09-20T20:41:17.189Z,95589.00
2022-09-20T20:43:43.549Z,95584.47
2022-09-20T20:46:09.910Z,95583.34
2022-09-20T20:48:36.346Z,95584.47
2022-09-20T20:51:02.689Z,95587.28
2022-09-20T20:53:29.295Z,95587.00
2022-09-20T20:55:55.629Z,95594.38
2022-09-20T20:58:22.149Z,95586.56
2022-09-20T21:00:48.474Z,95587.59
2022-09-20T21:03:14.809Z,95574.13
2022-09-20T21:05:41.166Z,95571.13
2022-09-20T21:08:07.540Z,95585.09
2022-09-20T21:10:33.852Z,95579.56
2022-09-20T21:13:00.183Z,95583.13
2022-09-20T21:15:26.543Z,95590.44
2022-09-20T21:17:54.019Z,95583.34
2022-09-20T21:20:20.348Z,95591.75
2022-09-20T21:22:46.665Z,95582.28
2022-09-20T21:25:12.982Z,95570.28
2022-09-20T21:27:39.303Z,95586.88
2022-09-20T21:30:05.761Z,95578.91
2022-09-20T21:32:32.220Z,95569.47
2022-09-20T21:34:58.570Z,95571.03
2022-09-20T21:37:25.050Z,95562.16
2022-09-20T21:39:51.426Z,95567.78
2022-09-20T21:42:17.839Z,95562.22
2022-09-20T21:44:44.181Z,95565.19
2022-09-20T21:47:10.500Z,95562.69
2022-09-20T21:49:36.800Z,95564.88
2022-09-20T21:52:03.136Z,95554.09
2022-09-20T21:54:29.473Z,95555.97
2022-09-20T21:56:55.831Z,95555.81
2022-09-20T21:59:22.147Z,95550.09
2022-09-20T22:01:48.517Z,95556.00
2022-09-20T22:04:15.311Z,95545.28
2022-09-20T22:06:41.643Z,95552.78
2022-09-20T22:09:07.972Z,95545.47
2022-09-20T22:11:34.330Z,95543.16
2022-09-20T22:14:00.648Z,95541.75
2022-09-20T22:16:26.957Z,95538.31
2022-09-20T22:18:53.271Z,95544.94
2022-09-20T22:21:19.615Z,95546.41
2022-09-20T22:23:45.944Z,95539.38
2022-09-20T22:26:12.262Z,95534.28
2022-09-20T22:28:38.585Z,95541.97
2022-09-20T22:31:04.930Z,95535.00
2022-09-20T22:33:31.259Z,95544.28
2022-09-20T22:35:57.593Z,95533.22
2022-09-20T22:38:23.901Z,95545.53
2022-09-20T22:40:50.231Z,95547.66
2022-09-20T22:43:16.548Z,95540.50
2022-09-20T22:45:42.905Z,95537.59
2022-09-20T22:48:09.252Z,95544.81
2022-09-20T22:50:35.578Z,95549.19
2022-09-20T22:53:01.892Z,95535.25
2022-09-20T22:55:28.213Z,95546.28
2022-09-20T22:57:54.546Z,95535.09
2022-09-20T23:00:20.964Z,95531.63
2022-09-20T23:02:47.283Z,95532.50
2022-09-20T23:05:13.613Z,95525.47
2022-09-20T23:07:39.949Z,95529.06
2022-09-20T23:10:06.331Z,95530.75
2022-09-20T23:12:32.677Z,95535.81
2022-09-20T23:14:59.000Z,95530.16
2022-09-20T23:17:25.345Z,95537.66
2022-09-20T23:19:51.690Z,95534.22
2022-09-20T23:22:18.008Z,95523.88
2022-09-20T23:24:44.336Z,95535.31
2022-09-20T23:27:10.659Z,95522.34
2022-09-20T23:29:36.965Z,95528.97
2022-09-20T23:32:03.320Z,95534.19
2022-09-20T23:34:29.652Z,95532.31
2022-09-20T23:36:55.990Z,95538.59
2022-09-20T23:39:22.316Z,95541.97
2022-09-20T23:41:51.089Z,95544.56
2022-09-20T23:44:17.789Z,95536.03
2022-09-20T23:46:44.122Z,95539.47
2022-09-20T23:49:10.458Z,95538.38
2022-09-20T23:51:36.790Z,95543.41
2022-09-20T23:54:03.144Z,95541.59
2022-09-20T23:56:29.475Z,95534.81
2022-09-20T23:58:55.826Z,95538.38
